createdAt,value
2023-02-21T00:00:40.915Z,23.60
2023-02-21T00:04:01.212Z,19.53
2023-02-21T00:07:21.719Z,20.90
2023-02-21T00:10:42.251Z,18.00
2023-02-21T00:14:02.667Z,17.57
2023-02-21T00:17:23.024Z,17.47
2023-02-21T00:20:43.218Z,21.47
2023-02-21T00:24:03.624Z,18.97
2023-02-21T00:27:24.032Z,26.77
2023-02-21T00:30:44.579Z,19.87
2023-02-21T00:34:04.866Z,20.23
2023-02-21T00:37:25.262Z,21.03
2023-02-21T00:40:45.624Z,20.30
2023-02-21T00:44:06.034Z,20.43
2023-02-21T00:47:26.561Z,19.03
2023-02-21T00:50:46.903Z,20.87
2023-02-21T00:54:07.356Z,20.83
2023-02-21T00:57:27.774Z,19.40
2023-02-21T01:00:48.168Z,19.90
2023-02-21T01:04:08.769Z,19.60
2023-02-21T01:07:29.361Z,23.67
2023-02-21T01:10:49.937Z,22.43
2023-02-21T01:14:10.479Z,23.67
2023-02-21T01:17:30.878Z,24.23
2023-02-21T01:20:51.176Z,24.53
2023-02-21T01:24:11.601Z,23.87
2023-02-21T01:27:32.459Z,25.57
2023-02-21T01:30:52.829Z,22.40
2023-02-21T01:34:12.962Z,21.87
2023-02-21T01:37:33.536Z,24.13
2023-02-21T01:40:56.455Z,22.27
2023-02-21T01:44:19.360Z,23.93
2023-02-21T01:47:40.371Z,23.53
2023-02-21T01:51:00.980Z,28.27
2023-02-21T01:54:23.153Z,30.63
2023-02-21T01:57:43.592Z,28.13
2023-02-21T02:01:04.186Z,28.43
2023-02-21T02:04:24.626Z,29.00
2023-02-21T02:07:45.035Z,30.80
2023-02-21T02:11:08.244Z,29.63
2023-02-21T02:14:24.675Z,26.40
2023-02-21T02:17:50.586Z,26.10
2023-02-21T02:21:06.506Z,28.60
2023-02-21T02:24:37.802Z,31.97
2023-02-21T02:28:09.899Z,25.77
2023-02-21T02:31:36.796Z,30.63
2023-02-21T02:34:38.457Z,26.83
2023-02-21T02:38:33.726Z,26.27
2023-02-21T02:42:21.955Z,31.37
2023-02-21T02:45:47.042Z,30.67
2023-02-21T02:48:52.260Z,31.83
2023-02-21T02:51:54.721Z,30.07
2023-02-21T02:55:28.427Z,30.10
2023-02-21T02:58:38.531Z,30.50
2023-02-21T03:01:49.777Z,33.77
2023-02-21T03:05:10.411Z,30.50
2023-02-21T03:08:27.844Z,27.73
2023-02-21T03:11:30.366Z,33.80
2023-02-21T03:14:46.803Z,28.90
2023-02-21T03:18:05.344Z,32.10
2023-02-21T03:21:11.660Z,31.33
2023-02-21T03:24:15.724Z,29.93
2023-02-21T03:27:19.668Z,30.43
2023-02-21T03:30:22.164Z,30.50
2023-02-21T03:33:24.133Z,33.97
2023-02-21T03:36:26.302Z,34.30
2023-02-21T03:39:28.481Z,32.57
2023-02-21T03:42:30.447Z,31.77
2023-02-21T03:45:32.144Z,37.23
2023-02-21T03:48:33.975Z,38.37
2023-02-21T03:51:35.721Z,37.53
2023-02-21T03:54:38.174Z,37.97
2023-02-21T03:57:39.894Z,44.30
2023-02-21T04:00:41.572Z,42.63
2023-02-21T04:03:43.175Z,41.33
2023-02-21T04:06:44.925Z,41.80
2023-02-21T04:09:48.256Z,40.43
2023-02-21T04:12:49.873Z,51.60
2023-02-21T04:15:51.684Z,44.67
2023-02-21T04:18:53.316Z,41.23
2023-02-21T04:21:54.983Z,42.03
2023-02-21T04:24:56.765Z,46.00
2023-02-21T04:27:58.429Z,44.80
2023-02-21T04:31:00.032Z,43.53
2023-02-21T04:34:11.244Z,46.03
2023-02-21T04:37:13.612Z,40.97
2023-02-21T04:40:15.676Z,48.63
2023-02-21T04:43:17.626Z,45.10
2023-02-21T04:46:19.464Z,45.00
2023-02-21T04:49:21.125Z,44.80
2023-02-21T04:52:22.870Z,44.97
2023-02-21T04:55:24.641Z,43.97
2023-02-21T04:58:29.090Z,42.63
2023-02-21T05:01:32.944Z,42.23
2023-02-21T05:04:36.450Z,39.50
2023-02-21T05:07:38.493Z,42.37
2023-02-21T05:10:45.558Z,41.53
2023-02-21T05:13:48.260Z,42.03
2023-02-21T05:16:49.975Z,45.40
2023-02-21T05:19:51.957Z,42.07
2023-02-21T05:22:55.950Z,40.23
2023-02-21T05:26:00.544Z,44.87
2023-02-21T05:29:02.717Z,43.23
2023-02-21T05:32:04.524Z,40.90
2023-02-21T05:35:07.084Z,47.40
2023-02-21T05:38:08.852Z,43.47
2023-02-21T05:41:10.537Z,41.20
2023-02-21T05:44:12.219Z,39.03
2023-02-21T05:47:15.167Z,41.60
2023-02-21T05:50:16.954Z,41.73
2023-02-21T05:53:18.629Z,42.70
2023-02-21T05:56:21.737Z,41.27
2023-02-21T05:59:23.472Z,41.90
2023-02-21T06:02:25.199Z,39.27
2023-02-21T06:05:27.183Z,41.70
2023-02-21T06:08:28.854Z,39.30
2023-02-21T06:11:33.568Z,40.17
2023-02-21T06:14:35.234Z,37.03
2023-02-21T06:17:37.829Z,38.33
2023-02-21T06:20:39.452Z,38.23
2023-02-21T06:23:41.131Z,42.17
2023-02-21T06:26:43.004Z,40.60
2023-02-21T06:29:44.778Z,39.63
2023-02-21T06:32:46.451Z,42.90
2023-02-21T06:35:48.090Z,39.67
2023-02-21T06:38:51.839Z,37.73
2023-02-21T06:41:53.625Z,39.20
2023-02-21T06:44:55.320Z,39.67
2023-02-21T06:47:57.140Z,37.87
2023-02-21T06:50:59.014Z,42.07
2023-02-21T06:54:00.679Z,39.07
2023-02-21T06:57:02.569Z,38.97
2023-02-21T07:00:07.914Z,40.53
2023-02-21T07:03:09.748Z,35.63
2023-02-21T07:06:11.622Z,36.10
2023-02-21T07:09:13.372Z,37.13
2023-02-21T07:12:15.057Z,36.63
2023-02-21T07:15:16.859Z,37.00
2023-02-21T07:18:18.690Z,31.70
2023-02-21T07:21:21.410Z,34.53
2023-02-21T07:24:23.149Z,31.30
2023-02-21T07:27:24.912Z,32.80
2023-02-21T07:30:28.850Z,30.23
2023-02-21T07:33:30.765Z,31.30
2023-02-21T07:36:32.378Z,29.67
2023-02-21T07:39:34.206Z,30.20
2023-02-21T07:42:35.986Z,32.37
2023-02-21T07:45:37.677Z,31.20
2023-02-21T07:48:39.566Z,28.07
2023-02-21T07:51:41.246Z,29.77
2023-02-21T07:54:42.899Z,34.83
2023-02-21T07:57:46.274Z,31.30
2023-02-21T08:00:48.056Z,32.00
2023-02-21T08:03:49.736Z,33.17
2023-02-21T08:06:51.851Z,33.13
2023-02-21T08:09:53.509Z,33.70
2023-02-21T08:12:55.415Z,33.20
2023-02-21T08:15:57.056Z,31.47
2023-02-21T08:18:59.015Z,34.07
2023-02-21T08:22:00.767Z,31.67
2023-02-21T08:25:02.583Z,30.77
2023-02-21T08:28:04.335Z,33.57
2023-02-21T08:31:07.244Z,32.93
2023-02-21T08:34:09.306Z,33.97
2023-02-21T08:37:17.198Z,32.90
2023-02-21T08:40:19.881Z,36.63
2023-02-21T08:43:21.628Z,34.80
2023-02-21T08:46:30.359Z,34.13
2023-02-21T08:49:32.064Z,35.07
2023-02-21T08:52:33.745Z,33.20
2023-02-21T08:55:35.384Z,37.60
2023-02-21T08:58:38.092Z,38.63
2023-02-21T09:01:40.097Z,34.30
2023-02-21T09:04:45.081Z,38.10
2023-02-21T09:07:51.232Z,35.60
2023-02-21T09:10:52.915Z,38.87
2023-02-21T09:13:55.767Z,37.13
2023-02-21T09:16:58.061Z,38.70
2023-02-21T09:20:09.298Z,33.50
2023-02-21T09:23:13.860Z,42.00
2023-02-21T09:26:43.904Z,36.17
2023-02-21T09:29:47.322Z,42.87
2023-02-21T09:32:49.450Z,36.33
2023-02-21T09:35:51.132Z,34.27
2023-02-21T09:38:54.119Z,39.43
2023-02-21T09:41:57.632Z,40.20
2023-02-21T09:44:59.801Z,36.50
2023-02-21T09:48:17.388Z,34.37
2023-02-21T09:51:19.183Z,34.40
2023-02-21T09:54:33.679Z,38.63
2023-02-21T09:57:36.876Z,45.83
2023-02-21T10:00:39.148Z,40.60
2023-02-21T10:04:01.039Z,42.07
2023-02-21T10:07:24.358Z,39.20
2023-02-21T10:10:55.520Z,36.40
2023-02-21T10:14:12.029Z,33.57
2023-02-21T10:17:23.432Z,31.90
2023-02-21T10:20:31.840Z,35.30
2023-02-21T10:23:42.936Z,31.93
2023-02-21T10:26:57.112Z,31.93
2023-02-21T10:30:10.741Z,32.40
2023-02-21T10:33:12.549Z,29.67
2023-02-21T10:36:18.541Z,27.90
2023-02-21T10:39:28.840Z,27.57
2023-02-21T10:42:54.524Z,27.70
2023-02-21T10:46:02.850Z,26.63
2023-02-21T10:49:29.212Z,26.37
2023-02-21T10:52:37.586Z,22.43
2023-02-21T10:55:39.264Z,22.10
2023-02-21T10:58:55.832Z,22.07
2023-02-21T11:01:58.794Z,24.10
2023-02-21T11:05:19.011Z,19.67
2023-02-21T11:08:44.361Z,20.87
2023-02-21T11:11:46.108Z,20.33
2023-02-21T11:14:50.817Z,18.27
2023-02-21T11:18:11.936Z,17.27
2023-02-21T11:21:18.685Z,16.33
2023-02-21T11:24:20.404Z,18.83
2023-02-21T11:27:22.724Z,18.37
2023-02-21T11:30:24.686Z,16.37
2023-02-21T11:33:27.444Z,17.93
2023-02-21T11:36:32.394Z,18.27
2023-02-21T11:39:34.905Z,16.23
2023-02-21T11:43:11.806Z,18.23
2023-02-21T11:46:13.506Z,17.07
2023-02-21T11:49:20.118Z,14.30
2023-02-21T11:52:45.426Z,15.43
2023-02-21T11:56:03.215Z,16.00
2023-02-21T11:59:13.293Z,13.50
2023-02-21T12:02:36.778Z,13.33
2023-02-21T12:06:10.352Z,12.50
2023-02-21T12:10:29.016Z,16.00
2023-02-21T12:13:50.255Z,14.20
2023-02-21T12:16:51.934Z,13.67
2023-02-21T12:20:27.120Z,11.47
2023-02-21T12:23:41.386Z,14.03
2023-02-21T12:26:43.006Z,13.00
2023-02-21T12:30:00.564Z,14.63
2023-02-21T12:33:36.240Z,13.97
2023-02-21T12:37:16.823Z,14.47
2023-02-21T12:40:48.825Z,11.53
2023-02-21T12:44:03.312Z,12.03
2023-02-21T12:47:15.807Z,11.87
2023-02-21T12:50:41.640Z,12.07
2023-02-21T12:53:43.224Z,10.10
2023-02-21T12:56:51.088Z,9.53
2023-02-21T13:00:24.162Z,10.63
2023-02-21T13:03:35.935Z,10.17
2023-02-21T13:06:50.720Z,9.37
2023-02-21T13:10:16.891Z,10.17
2023-02-21T13:13:24.815Z,11.03
2023-02-21T13:16:26.703Z,9.00
2023-02-21T13:19:39.014Z,7.60
2023-02-21T13:23:37.071Z,9.50
2023-02-21T13:26:48.190Z,11.33
2023-02-21T13:29:50.773Z,8.03
2023-02-21T13:32:56.045Z,8.50
2023-02-21T13:36:00.089Z,8.77
2023-02-21T13:39:09.497Z,8.30
2023-02-21T13:42:20.492Z,7.30
2023-02-21T13:45:27.029Z,10.13
2023-02-21T13:48:29.731Z,8.23
2023-02-21T13:51:53.041Z,8.10
2023-02-21T13:55:14.121Z,8.70
2023-02-21T13:58:18.655Z,10.00
2023-02-21T14:01:40.540Z,9.80
2023-02-21T14:04:57.415Z,9.47
2023-02-21T14:08:12.340Z,9.97
2023-02-21T14:11:28.625Z,10.30
2023-02-21T14:14:34.739Z,9.57
2023-02-21T14:17:37.097Z,8.97
2023-02-21T14:20:38.926Z,8.63
2023-02-21T14:23:50.720Z,7.47
2023-02-21T14:26:52.380Z,8.60
2023-02-21T14:30:12.386Z,11.27
2023-02-21T14:33:26.096Z,6.90
2023-02-21T14:36:30.334Z,7.83
2023-02-21T14:39:38.808Z,7.53
2023-02-21T14:43:13.093Z,8.53
2023-02-21T14:46:32.705Z,9.87
2023-02-21T14:50:02.086Z,9.77
2023-02-21T14:53:06.699Z,9.03
2023-02-21T14:56:35.958Z,10.67
2023-02-21T15:00:18.772Z,10.63
2023-02-21T15:03:30.782Z,8.90
2023-02-21T15:06:33.551Z,9.20
2023-02-21T15:09:35.890Z,9.30
2023-02-21T15:12:52.745Z,9.83
2023-02-21T15:16:06.712Z,9.33
2023-02-21T15:23:29.861Z,9.40
2023-02-21T15:26:34.420Z,10.17
2023-02-21T15:29:36.253Z,9.73
2023-02-21T15:32:38.066Z,9.70
2023-02-21T15:35:53.903Z,8.60
2023-02-21T15:38:55.739Z,9.63
2023-02-21T15:41:59.896Z,10.53
2023-02-21T15:45:27.720Z,11.17
2023-02-21T15:48:29.795Z,10.40
2023-02-21T15:51:40.197Z,9.47
2023-02-21T15:54:44.683Z,10.67
2023-02-21T15:57:59.862Z,9.20
2023-02-21T16:01:12.136Z,11.97
2023-02-21T16:04:38.864Z,10.93
2023-02-21T16:07:40.560Z,9.37
2023-02-21T16:10:43.564Z,12.03
2023-02-21T16:13:55.597Z,11.37
2023-02-21T16:17:16.852Z,10.53
2023-02-21T16:20:21.146Z,12.13
2023-02-21T16:23:39.527Z,14.00
2023-02-21T16:26:41.289Z,13.17
2023-02-21T16:29:42.989Z,12.47
2023-02-21T16:32:46.584Z,12.37
2023-02-21T16:35:48.284Z,14.23
2023-02-21T16:38:50.070Z,12.67
2023-02-21T16:41:52.193Z,12.03
2023-02-21T16:44:54.239Z,13.33
2023-02-21T16:47:58.571Z,13.90
2023-02-21T16:51:33.513Z,12.07
2023-02-21T16:54:35.324Z,15.77
2023-02-21T16:57:36.960Z,16.83
2023-02-21T17:00:38.640Z,14.40
2023-02-21T17:03:43.071Z,14.10
2023-02-21T17:06:57.441Z,16.73
2023-02-21T17:09:59.210Z,14.53
2023-02-21T17:13:03.314Z,14.30
2023-02-21T17:16:05.712Z,15.60
2023-02-21T17:19:12.363Z,16.00
2023-02-21T17:22:13.970Z,17.83
2023-02-21T17:25:16.733Z,15.73
2023-02-21T17:28:18.503Z,19.40
2023-02-21T17:31:20.252Z,17.90
2023-02-21T17:34:22.554Z,18.93
2023-02-21T17:37:24.264Z,17.47
2023-02-21T17:40:25.909Z,16.77
2023-02-21T17:43:27.730Z,17.10
2023-02-21T17:46:29.425Z,17.60
2023-02-21T17:49:31.056Z,20.27
2023-02-21T17:52:33.025Z,17.90
2023-02-21T17:55:34.704Z,19.17
2023-02-21T17:58:36.369Z,17.40
2023-02-21T18:01:38.177Z,19.97
2023-02-21T18:04:40.969Z,17.73
2023-02-21T18:07:47.049Z,17.77
2023-02-21T18:10:48.841Z,15.07
2023-02-21T18:13:51.721Z,17.73
2023-02-21T18:16:56.393Z,16.80
2023-02-21T18:19:58.145Z,17.03
2023-02-21T18:23:00.001Z,16.67
2023-02-21T18:26:02.611Z,16.77
2023-02-21T18:29:06.151Z,15.30
2023-02-21T18:32:07.969Z,15.60
2023-02-21T18:35:10.076Z,17.63
2023-02-21T18:38:12.985Z,16.87
2023-02-21T18:41:17.386Z,16.20
2023-02-21T18:44:19.594Z,16.00
2023-02-21T18:47:21.316Z,17.87
2023-02-21T18:50:36.643Z,16.43
2023-02-21T18:53:38.675Z,15.13
2023-02-21T18:56:49.122Z,12.60
2023-02-21T18:59:50.769Z,15.07
2023-02-21T19:02:52.649Z,16.47
2023-02-21T19:05:54.460Z,22.27
2023-02-21T19:08:56.195Z,21.77
2023-02-21T19:11:57.905Z,23.07
2023-02-21T19:14:59.503Z,19.67
2023-02-21T19:18:01.185Z,18.37
2023-02-21T19:21:02.855Z,16.37
2023-02-21T19:24:04.546Z,18.40
2023-02-21T19:27:06.349Z,19.23
2023-02-21T19:30:08.916Z,21.80
2023-02-21T19:33:24.004Z,19.70
2023-02-21T19:36:25.824Z,20.23
2023-02-21T19:39:27.747Z,19.00
2023-02-21T19:42:29.381Z,19.37
2023-02-21T19:45:31.039Z,20.43
2023-02-21T19:48:48.575Z,19.73
2023-02-21T19:51:53.594Z,19.93
2023-02-21T19:54:55.470Z,16.33
2023-02-21T19:57:57.283Z,19.97
2023-02-21T20:00:58.983Z,19.30
2023-02-21T20:04:01.561Z,19.17
2023-02-21T20:07:03.530Z,21.67
2023-02-21T20:10:05.699Z,19.20
2023-02-21T20:13:08.349Z,19.50
2023-02-21T20:16:11.318Z,18.60
2023-02-21T20:19:14.020Z,17.47
2023-02-21T20:22:15.676Z,20.10
2023-02-21T20:25:17.528Z,20.73
2023-02-21T20:28:20.006Z,21.60
2023-02-21T20:31:26.038Z,20.87
2023-02-21T20:34:28.153Z,21.00
2023-02-21T20:37:31.433Z,15.47
2023-02-21T20:40:34.588Z,11.83
2023-02-21T20:43:36.522Z,15.13
2023-02-21T20:46:38.559Z,16.43
2023-02-21T20:49:46.611Z,12.33
2023-02-21T20:52:51.208Z,12.10
2023-02-21T20:55:54.503Z,10.90
2023-02-21T20:59:22.531Z,10.93
2023-02-21T21:02:24.479Z,14.03
2023-02-21T21:05:26.212Z,14.67
2023-02-21T21:08:32.926Z,22.50
2023-02-21T21:11:35.123Z,15.63
2023-02-21T21:14:41.584Z,11.50
2023-02-21T21:18:10.141Z,12.53
2023-02-21T21:21:11.795Z,10.53
2023-02-21T21:24:13.470Z,11.80
2023-02-21T21:27:15.411Z,11.83
2023-02-21T21:30:22.521Z,11.10
2023-02-21T21:33:24.320Z,11.60
2023-02-21T21:36:26.544Z,7.80
2023-02-21T21:39:28.560Z,6.20
2023-02-21T21:42:30.225Z,7.43
2023-02-21T21:45:33.362Z,6.23
2023-02-21T21:48:38.549Z,6.50
2023-02-21T21:51:40.832Z,8.70
2023-02-21T21:54:46.826Z,5.90
2023-02-21T21:57:53.309Z,5.93
2023-02-21T22:00:54.986Z,8.37
2023-02-21T22:03:56.637Z,7.07
2023-02-21T22:06:58.389Z,8.77
2023-02-21T22:10:00.147Z,7.40
2023-02-21T22:13:09.566Z,7.07
2023-02-21T22:16:11.205Z,8.33
2023-02-21T22:19:12.869Z,8.27
2023-02-21T22:22:15.974Z,7.20
2023-02-21T22:25:19.766Z,9.20
2023-02-21T22:28:21.432Z,7.70
2023-02-21T22:31:23.231Z,7.53
2023-02-21T22:34:25.132Z,8.23
2023-02-21T22:37:27.942Z,9.77
2023-02-21T22:40:34.920Z,8.20
2023-02-21T22:43:36.851Z,7.80
2023-02-21T22:46:47.353Z,10.47
2023-02-21T22:49:49.022Z,7.53
2023-02-21T22:53:39.782Z,9.43
2023-02-21T22:56:50.703Z,8.43
2023-02-21T22:59:55.772Z,10.57
2023-02-21T23:02:57.474Z,10.43
2023-02-21T23:06:02.028Z,12.23
2023-02-21T23:09:12.221Z,12.80
2023-02-21T23:12:14.989Z,9.50
2023-02-21T23:15:18.328Z,11.47
2023-02-21T23:18:23.210Z,11.17
2023-02-21T23:21:25.036Z,7.23
2023-02-21T23:24:28.061Z,9.03
2023-02-21T23:27:32.638Z,6.10
2023-02-21T23:30:43.500Z,7.77
2023-02-21T23:33:48.987Z,6.20
2023-02-21T23:36:50.618Z,7.93
2023-02-21T23:39:52.294Z,5.37
2023-02-21T23:42:54.989Z,7.73
2023-02-21T23:45:57.822Z,6.77
2023-02-21T23:48:59.477Z,6.43
2023-02-21T23:52:01.809Z,7.40
2023-02-21T23:55:03.748Z,8.57
2023-02-21T23:58:08.881Z,8.17
